sensor_id;sensor_type;location;lat;lon;timestamp;temperature;humidity
56268;DHT22;42175;46.930;9.532;2023-08-12T00:00:33;24.00;64.40
56268;DHT22;42175;46.930;9.532;2023-08-12T00:02:59;24.00;64.30
56268;DHT22;42175;46.930;9.532;2023-08-12T00:05:25;24.00;64.20
56268;DHT22;42175;46.930;9.532;2023-08-12T00:07:51;24.00;64.20
56268;DHT22;42175;46.930;9.532;2023-08-12T00:10:17;24.00;64.20
56268;DHT22;42175;46.930;9.532;2023-08-12T00:12:43;24.00;64.30
56268;DHT22;42175;46.930;9.532;2023-08-12T00:15:09;24.00;64.20
56268;DHT22;42175;46.930;9.532;2023-08-12T00:17:36;24.00;64.30
56268;DHT22;42175;46.930;9.532;2023-08-12T00:20:04;24.00;64.20
56268;DHT22;42175;46.930;9.532;2023-08-12T00:22:34;24.00;64.30
56268;DHT22;42175;46.930;9.532;2023-08-12T00:25:00;24.00;64.20
56268;DHT22;42175;46.930;9.532;2023-08-12T00:27:26;23.90;64.10
56268;DHT22;42175;46.930;9.532;2023-08-12T00:29:51;24.00;64.30
56268;DHT22;42175;46.930;9.532;2023-08-12T00:32:18;24.00;64.10
56268;DHT22;42175;46.930;9.532;2023-08-12T00:34:44;24.00;63.80
56268;DHT22;42175;46.930;9.532;2023-08-12T00:37:09;23.90;64.20
56268;DHT22;42175;46.930;9.532;2023-08-12T00:39:35;23.80;64.20
56268;DHT22;42175;46.930;9.532;2023-08-12T00:42:01;23.80;64.30
56268;DHT22;42175;46.930;9.532;2023-08-12T00:44:27;23.80;63.50
56268;DHT22;42175;46.930;9.532;2023-08-12T00:46:52;23.80;63.40
56268;DHT22;42175;46.930;9.532;2023-08-12T00:49:21;23.80;63.20
56268;DHT22;42175;46.930;9.532;2023-08-12T00:51:49;23.80;63.40
56268;DHT22;42175;46.930;9.532;2023-08-12T00:54:16;23.70;63.60
56268;DHT22;42175;46.930;9.532;2023-08-12T00:56:42;23.70;63.60
56268;DHT22;42175;46.930;9.532;2023-08-12T00:59:09;23.70;63.90
56268;DHT22;42175;46.930;9.532;2023-08-12T01:01:39;23.60;64.50
56268;DHT22;42175;46.930;9.532;2023-08-12T01:04:07;23.50;64.70
56268;DHT22;42175;46.930;9.532;2023-08-12T01:06:33;23.50;64.50
56268;DHT22;42175;46.930;9.532;2023-08-12T01:08:59;23.60;64.20
56268;DHT22;42175;46.930;9.532;2023-08-12T01:14:56;23.50;64.60
56268;DHT22;42175;46.930;9.532;2023-08-12T01:17:27;23.50;64.50
56268;DHT22;42175;46.930;9.532;2023-08-12T01:19:54;23.50;64.60
56268;DHT22;42175;46.930;9.532;2023-08-12T01:22:21;23.60;63.70
56268;DHT22;42175;46.930;9.532;2023-08-12T01:24:49;23.60;63.80
56268;DHT22;42175;46.930;9.532;2023-08-12T01:27:16;23.50;64.30
56268;DHT22;42175;46.930;9.532;2023-08-12T01:29:48;23.50;64.20
56268;DHT22;42175;46.930;9.532;2023-08-12T01:35:01;23.50;63.30
56268;DHT22;42175;46.930;9.532;2023-08-12T01:37:29;23.50;63.50
56268;DHT22;42175;46.930;9.532;2023-08-12T01:39:56;23.40;64.10
56268;DHT22;42175;46.930;9.532;2023-08-12T01:42:24;23.50;63.60
56268;DHT22;42175;46.930;9.532;2023-08-12T01:44:50;23.50;63.40
56268;DHT22;42175;46.930;9.532;2023-08-12T01:47:16;23.40;64.30
56268;DHT22;42175;46.930;9.532;2023-08-12T01:49:42;23.30;64.50
56268;DHT22;42175;46.930;9.532;2023-08-12T01:52:08;23.30;64.40
56268;DHT22;42175;46.930;9.532;2023-08-12T01:54:34;23.40;63.60
56268;DHT22;42175;46.930;9.532;2023-08-12T01:57:04;23.50;63.60
56268;DHT22;42175;46.930;9.532;2023-08-12T01:59:35;23.40;63.80
56268;DHT22;42175;46.930;9.532;2023-08-12T02:02:01;23.30;64.20
56268;DHT22;42175;46.930;9.532;2023-08-12T02:04:27;23.30;64.30
56268;DHT22;42175;46.930;9.532;2023-08-12T02:06:54;23.30;64.40
56268;DHT22;42175;46.930;9.532;2023-08-12T02:09:20;23.30;64.20
56268;DHT22;42175;46.930;9.532;2023-08-12T02:11:46;23.30;64.30
56268;DHT22;42175;46.930;9.532;2023-08-12T02:14:12;23.30;64.30
56268;DHT22;42175;46.930;9.532;2023-08-12T02:16:37;23.30;64.20
56268;DHT22;42175;46.930;9.532;2023-08-12T02:19:04;23.30;64.20
56268;DHT22;42175;46.930;9.532;2023-08-12T02:21:29;23.30;64.20
56268;DHT22;42175;46.930;9.532;2023-08-12T02:23:55;23.30;64.20
56268;DHT22;42175;46.930;9.532;2023-08-12T02:26:21;23.30;64.20
56268;DHT22;42175;46.930;9.532;2023-08-12T02:28:47;23.30;64.10
56268;DHT22;42175;46.930;9.532;2023-08-12T02:31:13;23.30;63.80
56268;DHT22;42175;46.930;9.532;2023-08-12T02:33:39;23.30;63.90
56268;DHT22;42175;46.930;9.532;2023-08-12T02:36:05;23.20;63.90
56268;DHT22;42175;46.930;9.532;2023-08-12T02:38:30;23.20;63.80
56268;DHT22;42175;46.930;9.532;2023-08-12T02:40:56;23.20;63.90
56268;DHT22;42175;46.930;9.532;2023-08-12T02:43:22;23.20;64.00
56268;DHT22;42175;46.930;9.532;2023-08-12T02:45:47;23.20;64.00
56268;DHT22;42175;46.930;9.532;2023-08-12T02:48:13;23.20;63.90
56268;DHT22;42175;46.930;9.532;2023-08-12T02:50:39;23.20;63.90
56268;DHT22;42175;46.930;9.532;2023-08-12T02:53:05;23.20;63.80
56268;DHT22;42175;46.930;9.532;2023-08-12T02:55:32;23.20;63.80
56268;DHT22;42175;46.930;9.532;2023-08-12T02:57:58;23.20;63.40
56268;DHT22;42175;46.930;9.532;2023-08-12T03:00:24;23.30;63.00
56268;DHT22;42175;46.930;9.532;2023-08-12T03:02:50;23.20;64.10
56268;DHT22;42175;46.930;9.532;2023-08-12T03:05:15;23.20;63.80
56268;DHT22;42175;46.930;9.532;2023-08-12T03:07:41;23.20;63.80
56268;DHT22;42175;46.930;9.532;2023-08-12T03:10:07;23.10;63.80
56268;DHT22;42175;46.930;9.532;2023-08-12T03:12:34;23.10;64.50
56268;DHT22;42175;46.930;9.532;2023-08-12T03:15:01;23.10;63.80
56268;DHT22;42175;46.930;9.532;2023-08-12T03:17:26;23.10;63.60
56268;DHT22;42175;46.930;9.532;2023-08-12T03:19:52;23.20;63.60
56268;DHT22;42175;46.930;9.532;2023-08-12T03:22:20;23.10;63.80
56268;DHT22;42175;46.930;9.532;2023-08-12T03:24:46;23.10;63.90
56268;DHT22;42175;46.930;9.532;2023-08-12T03:27:11;23.10;63.80
56268;DHT22;42175;46.930;9.532;2023-08-12T03:29:37;23.10;63.80
56268;DHT22;42175;46.930;9.532;2023-08-12T03:32:03;23.10;63.40
56268;DHT22;42175;46.930;9.532;2023-08-12T03:34:29;23.20;63.20
56268;DHT22;42175;46.930;9.532;2023-08-12T03:36:57;23.10;63.70
56268;DHT22;42175;46.930;9.532;2023-08-12T03:39:23;23.10;63.80
56268;DHT22;42175;46.930;9.532;2023-08-12T03:41:49;23.10;63.20
56268;DHT22;42175;46.930;9.532;2023-08-12T03:44:16;23.10;63.20
56268;DHT22;42175;46.930;9.532;2023-08-12T03:46:42;23.10;63.60
56268;DHT22;42175;46.930;9.532;2023-08-12T03:49:08;23.00;63.60
56268;DHT22;42175;46.930;9.532;2023-08-12T03:51:33;23.00;63.70
56268;DHT22;42175;46.930;9.532;2023-08-12T03:53:59;23.10;62.90
56268;DHT22;42175;46.930;9.532;2023-08-12T03:56:25;23.10;63.30
56268;DHT22;42175;46.930;9.532;2023-08-12T03:58:51;23.10;63.40
56268;DHT22;42175;46.930;9.532;2023-08-12T04:01:17;23.10;63.20
56268;DHT22;42175;46.930;9.532;2023-08-12T04:03:43;23.10;63.80
56268;DHT22;42175;46.930;9.532;2023-08-12T04:06:09;23.00;64.00
56268;DHT22;42175;46.930;9.532;2023-08-12T04:08:34;23.00;63.90
56268;DHT22;42175;46.930;9.532;2023-08-12T04:11:00;23.00;63.70
56268;DHT22;42175;46.930;9.532;2023-08-12T04:13:26;23.10;63.40
56268;DHT22;42175;46.930;9.532;2023-08-12T04:15:52;23.10;63.50
56268;DHT22;42175;46.930;9.532;2023-08-12T04:18:19;23.00;64.00
56268;DHT22;42175;46.930;9.532;2023-08-12T04:20:46;23.00;64.10
56268;DHT22;42175;46.930;9.532;2023-08-12T04:23:13;23.00;64.10
56268;DHT22;42175;46.930;9.532;2023-08-12T04:25:38;23.00;64.20
56268;DHT22;42175;46.930;9.532;2023-08-12T04:28:04;23.00;64.20
56268;DHT22;42175;46.930;9.532;2023-08-12T04:30:31;23.00;64.20
56268;DHT22;42175;46.930;9.532;2023-08-12T04:32:56;23.00;64.20
56268;DHT22;42175;46.930;9.532;2023-08-12T04:35:22;23.00;64.10
56268;DHT22;42175;46.930;9.532;2023-08-12T04:37:48;23.00;64.10
56268;DHT22;42175;46.930;9.532;2023-08-12T04:40:14;23.00;64.20
56268;DHT22;42175;46.930;9.532;2023-08-12T04:42:40;23.00;64.30
56268;DHT22;42175;46.930;9.532;2023-08-12T04:45:06;23.00;64.30
56268;DHT22;42175;46.930;9.532;2023-08-12T04:47:32;23.00;64.10
56268;DHT22;42175;46.930;9.532;2023-08-12T04:49:58;23.10;64.00
56268;DHT22;42175;46.930;9.532;2023-08-12T04:52:24;23.10;64.10
56268;DHT22;42175;46.930;9.532;2023-08-12T04:54:53;23.00;64.40
56268;DHT22;42175;46.930;9.532;2023-08-12T04:57:19;23.00;64.80
56268;DHT22;42175;46.930;9.532;2023-08-12T04:59:45;23.00;64.80
56268;DHT22;42175;46.930;9.532;2023-08-12T05:02:10;23.00;64.60
56268;DHT22;42175;46.930;9.532;2023-08-12T05:04:37;23.10;63.90
56268;DHT22;42175;46.930;9.532;2023-08-12T05:07:02;23.10;64.10
56268;DHT22;42175;46.930;9.532;2023-08-12T05:09:28;23.00;65.30
56268;DHT22;42175;46.930;9.532;2023-08-12T05:11:54;23.00;64.60
56268;DHT22;42175;46.930;9.532;2023-08-12T05:14:20;23.00;64.70
56268;DHT22;42175;46.930;9.532;2023-08-12T05:16:45;23.00;64.80
56268;DHT22;42175;46.930;9.532;2023-08-12T05:19:11;23.00;64.40
56268;DHT22;42175;46.930;9.532;2023-08-12T05:21:37;23.10;64.50
56268;DHT22;42175;46.930;9.532;2023-08-12T05:24:03;23.10;64.60
56268;DHT22;42175;46.930;9.532;2023-08-12T05:26:29;23.00;64.60
56268;DHT22;42175;46.930;9.532;2023-08-12T05:28:54;23.10;64.70
56268;DHT22;42175;46.930;9.532;2023-08-12T05:31:20;23.00;65.00
56268;DHT22;42175;46.930;9.532;2023-08-12T05:33:46;23.00;65.20
56268;DHT22;42175;46.930;9.532;2023-08-12T05:36:12;23.00;65.60
56268;DHT22;42175;46.930;9.532;2023-08-12T05:38:38;23.00;65.80
56268;DHT22;42175;46.930;9.532;2023-08-12T05:41:03;23.00;65.40
56268;DHT22;42175;46.930;9.532;2023-08-12T05:43:32;23.10;65.30
56268;DHT22;42175;46.930;9.532;2023-08-12T05:45:58;23.00;65.70
56268;DHT22;42175;46.930;9.532;2023-08-12T05:48:24;23.00;65.60
56268;DHT22;42175;46.930;9.532;2023-08-12T05:50:49;23.10;65.30
56268;DHT22;42175;46.930;9.532;2023-08-12T05:53:15;23.10;65.50
56268;DHT22;42175;46.930;9.532;2023-08-12T05:55:41;23.10;65.10
56268;DHT22;42175;46.930;9.532;2023-08-12T05:58:07;23.10;65.60
56268;DHT22;42175;46.930;9.532;2023-08-12T06:00:32;23.10;66.30
56268;DHT22;42175;46.930;9.532;2023-08-12T06:02:58;23.10;65.50
56268;DHT22;42175;46.930;9.532;2023-08-12T06:05:24;23.10;65.70
56268;DHT22;42175;46.930;9.532;2023-08-12T06:07:50;23.10;65.80
56268;DHT22;42175;46.930;9.532;2023-08-12T06:10:15;23.10;65.00
56268;DHT22;42175;46.930;9.532;2023-08-12T06:12:41;23.00;65.30
56268;DHT22;42175;46.930;9.532;2023-08-12T06:15:07;23.10;64.70
56268;DHT22;42175;46.930;9.532;2023-08-12T06:17:32;23.10;65.30
56268;DHT22;42175;46.930;9.532;2023-08-12T06:19:58;23.10;64.70
56268;DHT22;42175;46.930;9.532;2023-08-12T06:22:24;23.10;64.00
56268;DHT22;42175;46.930;9.532;2023-08-12T06:24:49;23.00;63.80
56268;DHT22;42175;46.930;9.532;2023-08-12T06:27:15;23.00;63.60
56268;DHT22;42175;46.930;9.532;2023-08-12T06:29:41;23.10;63.60
56268;DHT22;42175;46.930;9.532;2023-08-12T06:32:06;23.10;64.20
56268;DHT22;42175;46.930;9.532;2023-08-12T06:34:32;23.10;65.00
56268;DHT22;42175;46.930;9.532;2023-08-12T06:36:58;23.10;65.20
56268;DHT22;42175;46.930;9.532;2023-08-12T06:39:23;23.10;65.30
56268;DHT22;42175;46.930;9.532;2023-08-12T06:41:49;23.00;64.50
56268;DHT22;42175;46.930;9.532;2023-08-12T06:44:16;23.10;64.20
56268;DHT22;42175;46.930;9.532;2023-08-12T06:46:42;23.10;63.70
56268;DHT22;42175;46.930;9.532;2023-08-12T06:49:07;23.10;62.70
56268;DHT22;42175;46.930;9.532;2023-08-12T06:51:33;23.10;62.80
56268;DHT22;42175;46.930;9.532;2023-08-12T06:53:58;23.10;63.00
56268;DHT22;42175;46.930;9.532;2023-08-12T06:56:24;23.20;62.90
56268;DHT22;42175;46.930;9.532;2023-08-12T06:58:50;23.30;62.80
56268;DHT22;42175;46.930;9.532;2023-08-12T07:01:15;23.30;63.00
56268;DHT22;42175;46.930;9.532;2023-08-12T07:03:41;23.40;63.00
56268;DHT22;42175;46.930;9.532;2023-08-12T07:06:07;23.50;62.50
56268;DHT22;42175;46.930;9.532;2023-08-12T07:08:32;23.40;62.70
56268;DHT22;42175;46.930;9.532;2023-08-12T07:10:58;23.40;62.70
56268;DHT22;42175;46.930;9.532;2023-08-12T07:13:24;23.50;61.90
56268;DHT22;42175;46.930;9.532;2023-08-12T07:15:49;23.50;62.10
56268;DHT22;42175;46.930;9.532;2023-08-12T07:18:15;23.50;62.10
56268;DHT22;42175;46.930;9.532;2023-08-12T07:20:41;23.60;61.40
56268;DHT22;42175;46.930;9.532;2023-08-12T07:23:06;23.70;61.20
56268;DHT22;42175;46.930;9.532;2023-08-12T07:25:32;23.60;61.40
56268;DHT22;42175;46.930;9.532;2023-08-12T07:27:58;23.60;61.10
56268;DHT22;42175;46.930;9.532;2023-08-12T07:30:24;23.70;60.70
56268;DHT22;42175;46.930;9.532;2023-08-12T07:32:49;23.60;60.70
56268;DHT22;42175;46.930;9.532;2023-08-12T07:35:15;23.60;60.70
56268;DHT22;42175;46.930;9.532;2023-08-12T07:37:41;23.60;61.10
56268;DHT22;42175;46.930;9.532;2023-08-12T07:40:07;23.60;61.50
56268;DHT22;42175;46.930;9.532;2023-08-12T07:42:35;23.60;62.30
56268;DHT22;42175;46.930;9.532;2023-08-12T07:45:01;23.50;62.00
56268;DHT22;42175;46.930;9.532;2023-08-12T07:47:26;23.50;62.30
56268;DHT22;42175;46.930;9.532;2023-08-12T07:49:52;23.50;62.80
56268;DHT22;42175;46.930;9.532;2023-08-12T07:52:18;23.50;61.80
56268;DHT22;42175;46.930;9.532;2023-08-12T07:54:43;23.60;61.80
56268;DHT22;42175;46.930;9.532;2023-08-12T07:57:09;23.60;62.30
56268;DHT22;42175;46.930;9.532;2023-08-12T07:59:35;23.60;62.40
56268;DHT22;42175;46.930;9.532;2023-08-12T08:02:01;23.60;62.60
56268;DHT22;42175;46.930;9.532;2023-08-12T08:04:26;23.60;63.70
56268;DHT22;42175;46.930;9.532;2023-08-12T08:06:52;23.60;62.60
56268;DHT22;42175;46.930;9.532;2023-08-12T08:09:18;23.70;61.60
56268;DHT22;42175;46.930;9.532;2023-08-12T08:11:44;23.70;61.60
56268;DHT22;42175;46.930;9.532;2023-08-12T08:14:10;23.70;61.80
56268;DHT22;42175;46.930;9.532;2023-08-12T08:16:36;23.60;62.00
56268;DHT22;42175;46.930;9.532;2023-08-12T08:19:02;23.70;62.00
56268;DHT22;42175;46.930;9.532;2023-08-12T08:21:28;23.70;62.20
56268;DHT22;42175;46.930;9.532;2023-08-12T08:23:53;23.70;62.20
56268;DHT22;42175;46.930;9.532;2023-08-12T08:26:19;23.70;62.20
56268;DHT22;42175;46.930;9.532;2023-08-12T08:28:45;23.80;61.90
56268;DHT22;42175;46.930;9.532;2023-08-12T08:31:10;23.70;61.90
56268;DHT22;42175;46.930;9.532;2023-08-12T08:33:36;23.70;61.80
56268;DHT22;42175;46.930;9.532;2023-08-12T08:36:02;23.70;61.50
56268;DHT22;42175;46.930;9.532;2023-08-12T08:38:28;23.80;61.20
56268;DHT22;42175;46.930;9.532;2023-08-12T08:40:53;23.80;61.50
56268;DHT22;42175;46.930;9.532;2023-08-12T08:43:21;23.80;61.50
56268;DHT22;42175;46.930;9.532;2023-08-12T08:45:52;23.80;61.40
56268;DHT22;42175;46.930;9.532;2023-08-12T08:48:20;23.80;61.50
56268;DHT22;42175;46.930;9.532;2023-08-12T08:50:46;23.80;61.70
56268;DHT22;42175;46.930;9.532;2023-08-12T08:53:12;23.80;61.50
56268;DHT22;42175;46.930;9.532;2023-08-12T08:55:42;23.90;61.90
56268;DHT22;42175;46.930;9.532;2023-08-12T08:58:08;23.90;62.00
56268;DHT22;42175;46.930;9.532;2023-08-12T09:00:35;23.80;62.20
56268;DHT22;42175;46.930;9.532;2023-08-12T09:03:03;23.80;62.20
56268;DHT22;42175;46.930;9.532;2023-08-12T09:05:31;23.80;63.00
56268;DHT22;42175;46.930;9.532;2023-08-12T09:07:58;23.80;63.10
56268;DHT22;42175;46.930;9.532;2023-08-12T09:10:27;23.80;63.50
56268;DHT22;42175;46.930;9.532;2023-08-12T09:12:56;23.90;64.10
56268;DHT22;42175;46.930;9.532;2023-08-12T09:15:22;23.80;64.10
56268;DHT22;42175;46.930;9.532;2023-08-12T09:17:48;23.80;63.50
56268;DHT22;42175;46.930;9.532;2023-08-12T09:20:14;23.90;62.90
56268;DHT22;42175;46.930;9.532;2023-08-12T09:22:41;24.00;62.10
56268;DHT22;42175;46.930;9.532;2023-08-12T09:25:07;24.00;62.40
56268;DHT22;42175;46.930;9.532;2023-08-12T09:27:35;23.90;62.70
56268;DHT22;42175;46.930;9.532;2023-08-12T09:30:03;23.90;63.30
56268;DHT22;42175;46.930;9.532;2023-08-12T09:32:30;23.90;63.40
56268;DHT22;42175;46.930;9.532;2023-08-12T09:34:56;24.00;62.40
56268;DHT22;42175;46.930;9.532;2023-08-12T09:37:23;24.10;62.30
56268;DHT22;42175;46.930;9.532;2023-08-12T09:39:52;24.10;62.20
56268;DHT22;42175;46.930;9.532;2023-08-12T09:42:18;24.10;62.10
56268;DHT22;42175;46.930;9.532;2023-08-12T09:44:44;24.10;62.10
56268;DHT22;42175;46.930;9.532;2023-08-12T09:47:10;24.10;62.10
56268;DHT22;42175;46.930;9.532;2023-08-12T09:49:38;24.10;61.90
56268;DHT22;42175;46.930;9.532;2023-08-12T09:52:05;24.10;61.80
56268;DHT22;42175;46.930;9.532;2023-08-12T09:54:31;24.10;61.70
56268;DHT22;42175;46.930;9.532;2023-08-12T09:57:08;24.10;61.30
56268;DHT22;42175;46.930;9.532;2023-08-12T09:59:38;24.00;61.20
56268;DHT22;42175;46.930;9.532;2023-08-12T10:02:04;24.00;61.50
56268;DHT22;42175;46.930;9.532;2023-08-12T10:04:38;24.00;61.50
56268;DHT22;42175;46.930;9.532;2023-08-12T10:07:11;24.10;61.50
56268;DHT22;42175;46.930;9.532;2023-08-12T10:09:39;24.00;61.40
56268;DHT22;42175;46.930;9.532;2023-08-12T10:12:06;24.10;61.50
56268;DHT22;42175;46.930;9.532;2023-08-12T10:14:32;24.10;61.10
56268;DHT22;42175;46.930;9.532;2023-08-12T10:16:58;24.10;61.30
56268;DHT22;42175;46.930;9.532;2023-08-12T10:19:25;24.10;61.10
56268;DHT22;42175;46.930;9.532;2023-08-12T10:21:55;24.20;61.00
56268;DHT22;42175;46.930;9.532;2023-08-12T10:24:26;24.10;60.90
56268;DHT22;42175;46.930;9.532;2023-08-12T10:26:53;24.20;60.90
56268;DHT22;42175;46.930;9.532;2023-08-12T10:29:19;24.10;60.80
56268;DHT22;42175;46.930;9.532;2023-08-12T10:31:47;24.10;60.20
56268;DHT22;42175;46.930;9.532;2023-08-12T10:34:20;24.20;60.10
56268;DHT22;42175;46.930;9.532;2023-08-12T10:36:47;24.30;60.10
56268;DHT22;42175;46.930;9.532;2023-08-12T10:39:14;24.30;60.50
56268;DHT22;42175;46.930;9.532;2023-08-12T10:41:50;24.30;60.70
56268;DHT22;42175;46.930;9.532;2023-08-12T10:44:20;24.30;60.90
56268;DHT22;42175;46.930;9.532;2023-08-12T10:46:51;24.40;60.80
56268;DHT22;42175;46.930;9.532;2023-08-12T10:49:19;24.60;60.70
56268;DHT22;42175;46.930;9.532;2023-08-12T10:51:48;24.60;60.10
56268;DHT22;42175;46.930;9.532;2023-08-12T10:57:07;24.70;59.70
56268;DHT22;42175;46.930;9.532;2023-08-12T11:02:32;24.70;59.80
56268;DHT22;42175;46.930;9.532;2023-08-12T11:05:08;24.70;60.10
56268;DHT22;42175;46.930;9.532;2023-08-12T11:07:58;24.70;60.50
56268;DHT22;42175;46.930;9.532;2023-08-12T11:10:27;24.60;60.80
56268;DHT22;42175;46.930;9.532;2023-08-12T11:15:42;24.80;61.00
56268;DHT22;42175;46.930;9.532;2023-08-12T11:18:14;25.00;61.90
56268;DHT22;42175;46.930;9.532;2023-08-12T11:20:42;25.00;61.30
56268;DHT22;42175;46.930;9.532;2023-08-12T11:23:09;25.00;62.20
56268;DHT22;42175;46.930;9.532;2023-08-12T11:25:36;25.20;61.50
56268;DHT22;42175;46.930;9.532;2023-08-12T11:28:04;25.20;61.60
56268;DHT22;42175;46.930;9.532;2023-08-12T11:30:30;25.00;62.00
56268;DHT22;42175;46.930;9.532;2023-08-12T11:32:56;25.00;61.70
56268;DHT22;42175;46.930;9.532;2023-08-12T11:35:23;25.00;61.90
56268;DHT22;42175;46.930;9.532;2023-08-12T11:37:51;24.90;62.30
56268;DHT22;42175;46.930;9.532;2023-08-12T11:40:25;24.90;62.70
56268;DHT22;42175;46.930;9.532;2023-08-12T11:42:53;24.80;62.90
56268;DHT22;42175;46.930;9.532;2023-08-12T11:45:21;24.80;62.90
56268;DHT22;42175;46.930;9.532;2023-08-12T11:47:47;24.80;62.80
56268;DHT22;42175;46.930;9.532;2023-08-12T11:50:22;24.70;63.00
56268;DHT22;42175;46.930;9.532;2023-08-12T11:52:49;24.70;63.00
56268;DHT22;42175;46.930;9.532;2023-08-12T11:55:15;24.70;63.00
56268;DHT22;42175;46.930;9.532;2023-08-12T11:57:41;24.70;63.10
56268;DHT22;42175;46.930;9.532;2023-08-12T12:00:11;24.60;63.30
56268;DHT22;42175;46.930;9.532;2023-08-12T12:02:41;24.60;63.50
56268;DHT22;42175;46.930;9.532;2023-08-12T12:05:10;24.70;63.80
56268;DHT22;42175;46.930;9.532;2023-08-12T12:07:37;24.60;63.60
56268;DHT22;42175;46.930;9.532;2023-08-12T12:10:04;24.60;63.80
56268;DHT22;42175;46.930;9.532;2023-08-12T12:12:36;24.60;63.90
56268;DHT22;42175;46.930;9.532;2023-08-12T12:15:03;24.60;64.10
56268;DHT22;42175;46.930;9.532;2023-08-12T12:17:30;24.60;64.10
56268;DHT22;42175;46.930;9.532;2023-08-12T12:20:00;24.60;64.30
56268;DHT22;42175;46.930;9.532;2023-08-12T12:22:30;24.60;64.40
56268;DHT22;42175;46.930;9.532;2023-08-12T12:25:09;24.60;64.20
56268;DHT22;42175;46.930;9.532;2023-08-12T12:27:36;24.60;64.40
56268;DHT22;42175;46.930;9.532;2023-08-12T12:30:02;24.60;64.40
56268;DHT22;42175;46.930;9.532;2023-08-12T12:32:28;24.60;64.40
56268;DHT22;42175;46.930;9.532;2023-08-12T12:34:54;24.60;64.40
56268;DHT22;42175;46.930;9.532;2023-08-12T12:37:20;24.60;64.40
56268;DHT22;42175;46.930;9.532;2023-08-12T12:39:46;24.60;64.60
56268;DHT22;42175;46.930;9.532;2023-08-12T12:42:12;24.60;64.30
56268;DHT22;42175;46.930;9.532;2023-08-12T12:44:38;24.60;64.30
56268;DHT22;42175;46.930;9.532;2023-08-12T12:47:04;24.60;64.40
56268;DHT22;42175;46.930;9.532;2023-08-12T12:49:30;24.60;64.30
56268;DHT22;42175;46.930;9.532;2023-08-12T12:51:56;24.60;64.30
56268;DHT22;42175;46.930;9.532;2023-08-12T12:54:22;24.60;64.10
56268;DHT22;42175;46.930;9.532;2023-08-12T12:56:47;24.60;64.10
56268;DHT22;42175;46.930;9.532;2023-08-12T12:59:13;24.60;64.20
56268;DHT22;42175;46.930;9.532;2023-08-12T13:01:40;24.60;64.10
56268;DHT22;42175;46.930;9.532;2023-08-12T13:04:06;24.60;64.00
56268;DHT22;42175;46.930;9.532;2023-08-12T13:06:34;24.60;64.40
56268;DHT22;42175;46.930;9.532;2023-08-12T13:09:00;24.60;64.00
56268;DHT22;42175;46.930;9.532;2023-08-12T13:11:25;24.60;64.00
56268;DHT22;42175;46.930;9.532;2023-08-12T13:13:52;24.60;64.10
56268;DHT22;42175;46.930;9.532;2023-08-12T13:16:19;24.60;64.10
56268;DHT22;42175;46.930;9.532;2023-08-12T13:18:45;24.60;64.20
56268;DHT22;42175;46.930;9.532;2023-08-12T13:21:11;24.60;64.40
56268;DHT22;42175;46.930;9.532;2023-08-12T13:23:37;24.60;64.40
56268;DHT22;42175;46.930;9.532;2023-08-12T13:26:02;24.60;64.40
56268;DHT22;42175;46.930;9.532;2023-08-12T13:28:28;24.60;64.30
56268;DHT22;42175;46.930;9.532;2023-08-12T13:30:54;24.60;64.40
56268;DHT22;42175;46.930;9.532;2023-08-12T13:33:19;24.60;64.70
56268;DHT22;42175;46.930;9.532;2023-08-12T13:35:45;24.60;64.60
56268;DHT22;42175;46.930;9.532;2023-08-12T13:38:11;24.60;64.80
56268;DHT22;42175;46.930;9.532;2023-08-12T13:40:36;24.60;64.90
56268;DHT22;42175;46.930;9.532;2023-08-12T13:43:02;24.60;65.00
56268;DHT22;42175;46.930;9.532;2023-08-12T13:45:28;24.60;65.00
56268;DHT22;42175;46.930;9.532;2023-08-12T13:47:54;24.60;64.90
56268;DHT22;42175;46.930;9.532;2023-08-12T13:50:20;24.60;65.00
56268;DHT22;42175;46.930;9.532;2023-08-12T13:52:46;24.60;65.00
56268;DHT22;42175;46.930;9.532;2023-08-12T13:55:12;24.60;65.00
56268;DHT22;42175;46.930;9.532;2023-08-12T13:57:38;24.60;65.10
56268;DHT22;42175;46.930;9.532;2023-08-12T14:00:04;24.60;65.90
56268;DHT22;42175;46.930;9.532;2023-08-12T14:02:35;24.70;66.70
56268;DHT22;42175;46.930;9.532;2023-08-12T14:05:02;24.70;67.20
56268;DHT22;42175;46.930;9.532;2023-08-12T14:07:28;24.70;67.80
56268;DHT22;42175;46.930;9.532;2023-08-12T14:09:54;24.70;67.40
56268;DHT22;42175;46.930;9.532;2023-08-12T14:12:19;24.70;67.10
56268;DHT22;42175;46.930;9.532;2023-08-12T14:14:45;24.70;67.20
56268;DHT22;42175;46.930;9.532;2023-08-12T14:17:11;24.70;67.40
56268;DHT22;42175;46.930;9.532;2023-08-12T14:19:40;24.80;67.80
56268;DHT22;42175;46.930;9.532;2023-08-12T14:22:07;24.80;67.70
56268;DHT22;42175;46.930;9.532;2023-08-12T14:24:33;24.80;68.20
56268;DHT22;42175;46.930;9.532;2023-08-12T14:26:58;24.80;68.10
56268;DHT22;42175;46.930;9.532;2023-08-12T14:29:24;24.80;68.20
56268;DHT22;42175;46.930;9.532;2023-08-12T14:31:51;24.80;68.40
56268;DHT22;42175;46.930;9.532;2023-08-12T14:34:17;24.80;68.50
56268;DHT22;42175;46.930;9.532;2023-08-12T14:36:43;24.80;69.10
56268;DHT22;42175;46.930;9.532;2023-08-12T14:39:09;24.80;69.60
56268;DHT22;42175;46.930;9.532;2023-08-12T14:41:34;24.80;70.30
56268;DHT22;42175;46.930;9.532;2023-08-12T14:44:00;24.80;70.40
56268;DHT22;42175;46.930;9.532;2023-08-12T14:46:26;24.70;70.30
56268;DHT22;42175;46.930;9.532;2023-08-12T14:48:51;24.80;70.30
56268;DHT22;42175;46.930;9.532;2023-08-12T14:51:19;24.80;70.40
56268;DHT22;42175;46.930;9.532;2023-08-12T14:53:44;24.80;70.00
56268;DHT22;42175;46.930;9.532;2023-08-12T14:56:12;24.80;70.80
56268;DHT22;42175;46.930;9.532;2023-08-12T14:58:39;24.80;70.70
56268;DHT22;42175;46.930;9.532;2023-08-12T15:01:04;24.80;70.10
56268;DHT22;42175;46.930;9.532;2023-08-12T15:03:30;24.80;70.60
56268;DHT22;42175;46.930;9.532;2023-08-12T15:06:00;24.80;71.40
56268;DHT22;42175;46.930;9.532;2023-08-12T15:08:26;24.90;70.30
56268;DHT22;42175;46.930;9.532;2023-08-12T15:10:54;24.90;69.80
56268;DHT22;42175;46.930;9.532;2023-08-12T15:13:20;24.90;70.30
56268;DHT22;42175;46.930;9.532;2023-08-12T15:15:46;24.80;70.10
56268;DHT22;42175;46.930;9.532;2023-08-12T15:18:12;24.80;70.30
56268;DHT22;42175;46.930;9.532;2023-08-12T15:20:37;24.80;69.70
56268;DHT22;42175;46.930;9.532;2023-08-12T15:23:03;24.80;69.50
56268;DHT22;42175;46.930;9.532;2023-08-12T15:25:29;24.90;69.80
56268;DHT22;42175;46.930;9.532;2023-08-12T15:27:55;24.90;69.90
56268;DHT22;42175;46.930;9.532;2023-08-12T15:30:20;24.80;69.50
56268;DHT22;42175;46.930;9.532;2023-08-12T15:32:46;24.90;69.70
56268;DHT22;42175;46.930;9.532;2023-08-12T15:35:12;24.90;69.10
56268;DHT22;42175;46.930;9.532;2023-08-12T15:37:38;24.90;69.60
56268;DHT22;42175;46.930;9.532;2023-08-12T15:40:05;24.90;69.80